createdAt,value
2018-02-19T00:00:13.326Z,19.80
2018-02-19T00:02:40.780Z,21.20
2018-02-19T00:05:08.240Z,21.20
2018-02-19T00:07:35.731Z,22.20
2018-02-19T00:10:03.962Z,20.47
2018-02-19T00:12:31.419Z,21.23
2018-02-19T00:14:58.873Z,21.37
2018-02-19T00:17:26.330Z,20.43
2018-02-19T00:19:53.794Z,20.63
2018-02-19T00:22:21.244Z,20.40
2018-02-19T00:24:48.714Z,21.17
2018-02-19T00:27:16.167Z,22.27
2018-02-19T00:29:43.629Z,20.03
2018-02-19T00:32:11.085Z,19.23
2018-02-19T00:34:38.545Z,19.77
2018-02-19T00:37:05.993Z,20.50
2018-02-19T00:39:33.469Z,21.27
2018-02-19T00:42:00.930Z,22.00
2018-02-19T00:44:28.397Z,20.13
2018-02-19T00:46:57.157Z,19.57
2018-02-19T00:49:24.618Z,21.53
2018-02-19T00:51:52.078Z,19.67
2018-02-19T00:54:19.541Z,20.90
2018-02-19T00:56:46.997Z,18.10
2018-02-19T00:59:15.305Z,18.53
2018-02-19T01:01:43.516Z,17.70
2018-02-19T01:04:10.977Z,18.17
2018-02-19T01:06:38.432Z,19.73
2018-02-19T01:09:06.657Z,21.57
2018-02-19T01:11:34.882Z,22.63
2018-02-19T01:14:02.343Z,22.10
2018-02-19T01:16:29.811Z,21.53
2018-02-19T01:18:57.258Z,19.60
2018-02-19T01:21:24.733Z,21.30
2018-02-19T01:23:52.191Z,24.40
2018-02-19T01:26:19.657Z,22.63
2018-02-19T01:28:47.113Z,23.20
2018-02-19T01:31:14.585Z,23.50
2018-02-19T01:33:42.810Z,24.80
2018-02-19T01:36:10.272Z,22.77
2018-02-19T01:38:37.729Z,23.70
2018-02-19T01:41:05.235Z,23.30
2018-02-19T01:43:33.457Z,21.63
2018-02-19T01:46:00.914Z,25.07
2018-02-19T01:48:28.407Z,22.37
2018-02-19T01:50:55.860Z,25.50
2018-02-19T01:53:23.327Z,23.60
2018-02-19T01:55:51.557Z,22.57
2018-02-19T01:58:19.017Z,20.93
2018-02-19T02:00:46.481Z,23.50
2018-02-19T02:03:13.933Z,23.00
2018-02-19T02:05:41.481Z,20.80
2018-02-19T02:08:08.934Z,22.60
2018-02-19T02:10:36.388Z,24.63
2018-02-19T02:13:03.851Z,21.40
2018-02-19T02:15:31.300Z,20.83
2018-02-19T02:17:58.757Z,21.83
2018-02-19T02:20:26.224Z,24.70
2018-02-19T02:22:53.685Z,22.53
2018-02-19T02:25:21.142Z,26.63
2018-02-19T02:27:48.613Z,20.60
2018-02-19T02:30:16.061Z,18.53
2018-02-19T02:32:43.529Z,19.77
2018-02-19T02:35:10.990Z,21.57
2018-02-19T02:37:38.458Z,22.10
2018-02-19T02:40:05.911Z,22.23
2018-02-19T02:42:33.383Z,23.37
2018-02-19T02:45:01.598Z,21.40
2018-02-19T02:47:29.057Z,20.13
2018-02-19T02:49:56.514Z,23.10
2018-02-19T02:52:23.965Z,22.17
2018-02-19T02:54:51.431Z,27.40
2018-02-19T02:57:19.433Z,24.63
2018-02-19T02:59:46.901Z,25.10
2018-02-19T03:02:15.125Z,21.07
2018-02-19T03:04:42.586Z,20.50
2018-02-19T03:07:10.038Z,23.23
2018-02-19T03:09:37.493Z,25.23
2018-02-19T03:12:04.955Z,25.43
2018-02-19T03:14:32.408Z,25.47
2018-02-19T03:16:59.865Z,23.50
2018-02-19T03:19:27.316Z,23.97
2018-02-19T03:21:54.779Z,22.33
2018-02-19T03:24:22.233Z,23.50
2018-02-19T03:26:49.692Z,22.57
2018-02-19T03:29:17.145Z,22.43
2018-02-19T03:31:44.633Z,22.97
2018-02-19T03:34:12.094Z,18.67
2018-02-19T03:36:39.569Z,24.37
2018-02-19T03:39:07.800Z,21.23
2018-02-19T03:41:35.251Z,20.37
2018-02-19T03:44:02.706Z,19.33
2018-02-19T03:46:30.158Z,17.70
2018-02-19T03:48:57.615Z,19.63
2018-02-19T03:51:25.068Z,22.17
2018-02-19T03:53:52.534Z,23.10
2018-02-19T03:56:19.986Z,18.97
2018-02-19T03:58:47.467Z,22.60
2018-02-19T04:01:14.913Z,21.40
2018-02-19T04:03:42.382Z,25.73
2018-02-19T04:06:09.839Z,19.83
2018-02-19T04:08:37.297Z,22.37
2018-02-19T04:11:04.766Z,20.47
2018-02-19T04:13:32.238Z,20.00
2018-02-19T04:16:00.458Z,20.43
2018-02-19T04:18:27.913Z,19.87
2018-02-19T04:20:55.362Z,18.57
2018-02-19T04:23:22.830Z,20.50
2018-02-19T04:25:50.285Z,20.17
2018-02-19T04:28:17.741Z,22.70
2018-02-19T04:30:45.190Z,19.77
2018-02-19T04:33:12.654Z,20.60
2018-02-19T04:35:40.100Z,20.50
2018-02-19T04:38:07.587Z,21.90
2018-02-19T04:40:35.040Z,23.80
2018-02-19T04:43:02.510Z,22.53
2018-02-19T04:45:30.385Z,21.20
2018-02-19T04:47:57.851Z,22.70
2018-02-19T04:50:26.073Z,21.90
2018-02-19T04:52:53.528Z,20.10
2018-02-19T04:55:20.998Z,20.97
2018-02-19T04:57:48.445Z,20.73
2018-02-19T05:00:15.918Z,21.97
2018-02-19T05:02:43.377Z,22.93
2018-02-19T05:05:10.842Z,22.57
2018-02-19T05:07:39.061Z,32.00
2018-02-19T05:10:06.530Z,32.80
2018-02-19T05:12:33.973Z,26.60
2018-02-19T05:15:02.198Z,21.87
2018-02-19T05:17:29.661Z,17.10
2018-02-19T05:19:57.125Z,17.37
2018-02-19T05:22:24.566Z,16.83
2018-02-19T05:24:52.079Z,19.47
2018-02-19T05:27:20.284Z,20.23
2018-02-19T05:29:47.750Z,19.27
2018-02-19T05:32:15.205Z,18.80
2018-02-19T05:34:42.661Z,21.27
2018-02-19T05:37:10.114Z,18.40
2018-02-19T05:39:37.593Z,19.40
2018-02-19T05:42:05.061Z,17.93
2018-02-19T05:44:32.516Z,19.57
2018-02-19T05:46:59.983Z,16.73
2018-02-19T05:49:27.442Z,16.57
2018-02-19T05:51:54.893Z,17.20
2018-02-19T05:54:22.354Z,17.20
2018-02-19T05:56:49.836Z,19.03
2018-02-19T05:59:17.301Z,17.10
2018-02-19T06:01:44.768Z,19.67
2018-02-19T06:04:12.237Z,17.83
2018-02-19T06:06:39.694Z,18.20
2018-02-19T06:09:07.153Z,18.93
2018-02-19T06:11:34.624Z,18.60
2018-02-19T06:14:02.069Z,21.17
2018-02-19T06:16:29.525Z,21.17
2018-02-19T06:18:56.993Z,18.67
2018-02-19T06:21:24.445Z,18.47
2018-02-19T06:23:51.938Z,20.20
2018-02-19T06:26:19.362Z,19.10
2018-02-19T06:28:46.814Z,18.87
2018-02-19T06:31:14.276Z,20.07
2018-02-19T06:33:41.806Z,18.67
2018-02-19T06:36:09.261Z,19.60
2018-02-19T06:38:36.721Z,19.50
2018-02-19T06:41:04.180Z,19.50
2018-02-19T06:43:31.633Z,23.97
2018-02-19T06:45:59.098Z,22.20
2018-02-19T06:48:26.549Z,21.97
2018-02-19T06:50:54.037Z,21.60
2018-02-19T06:53:21.489Z,22.93
2018-02-19T06:55:48.973Z,18.93
2018-02-19T06:58:16.453Z,20.30
2018-02-19T07:00:43.911Z,19.80
2018-02-19T07:03:11.378Z,20.07
2018-02-19T07:05:38.839Z,19.37
2018-02-19T07:08:06.289Z,20.53
2018-02-19T07:10:33.756Z,20.03
2018-02-19T07:13:01.205Z,20.80
2018-02-19T07:15:28.663Z,21.43
2018-02-19T07:17:56.117Z,21.67
2018-02-19T07:20:23.573Z,17.90
2018-02-19T07:22:51.029Z,20.00
2018-02-19T07:25:18.495Z,23.13
2018-02-19T07:27:45.958Z,20.80
2018-02-19T07:30:13.426Z,22.83
2018-02-19T07:32:42.115Z,21.67
2018-02-19T07:35:09.561Z,23.17
2018-02-19T07:37:37.019Z,23.70
2018-02-19T07:40:04.465Z,20.57
2018-02-19T07:42:31.925Z,20.17
2018-02-19T07:44:59.379Z,21.40
2018-02-19T07:47:26.846Z,21.77
2018-02-19T07:49:54.302Z,20.90
2018-02-19T07:52:21.763Z,20.33
2018-02-19T07:54:49.219Z,21.20
2018-02-19T07:57:16.665Z,22.73
2018-02-19T07:59:44.121Z,25.63
2018-02-19T08:02:11.589Z,19.80
2018-02-19T08:04:39.061Z,21.00
2018-02-19T08:07:06.513Z,20.40
2018-02-19T08:09:33.978Z,21.40
2018-02-19T08:12:01.435Z,20.80
2018-02-19T08:14:28.902Z,19.40
2018-02-19T08:16:56.354Z,22.17
2018-02-19T08:19:23.824Z,22.67
2018-02-19T08:21:51.273Z,17.80
2018-02-19T08:24:18.729Z,20.07
2018-02-19T08:26:46.188Z,19.43
2018-02-19T08:29:13.642Z,18.80
2018-02-19T08:31:41.100Z,21.57
2018-02-19T08:34:08.556Z,19.60
2018-02-19T08:36:36.010Z,19.27
2018-02-19T08:39:03.461Z,21.60
2018-02-19T08:41:30.940Z,19.33
2018-02-19T08:43:58.381Z,23.40
2018-02-19T08:46:25.829Z,21.03
2018-02-19T08:48:53.336Z,24.53
2018-02-19T08:51:20.736Z,27.83
2018-02-19T08:53:48.193Z,25.07
2018-02-19T08:56:15.646Z,22.07
2018-02-19T08:58:43.106Z,23.80
2018-02-19T09:01:10.563Z,26.10
2018-02-19T09:03:38.022Z,25.10
2018-02-19T09:06:05.474Z,26.17
2018-02-19T09:08:32.959Z,29.10
2018-02-19T09:11:00.408Z,26.03
2018-02-19T09:13:27.857Z,27.13
2018-02-19T09:15:55.340Z,25.80
2018-02-19T09:18:23.567Z,28.50
2018-02-19T09:20:51.033Z,26.37
2018-02-19T09:23:18.481Z,24.00
2018-02-19T09:25:45.943Z,25.37
2018-02-19T09:28:13.401Z,27.33
2018-02-19T09:30:40.873Z,26.37
2018-02-19T09:33:08.318Z,26.67
2018-02-19T09:35:35.946Z,26.27
2018-02-19T09:38:03.399Z,24.13
2018-02-19T09:40:30.855Z,26.33
2018-02-19T09:42:58.317Z,27.60
2018-02-19T09:45:25.771Z,29.23
2018-02-19T09:47:53.228Z,26.33
2018-02-19T09:50:20.685Z,23.50
2018-02-19T09:52:48.144Z,25.43
2018-02-19T09:55:15.627Z,27.60
2018-02-19T09:57:43.114Z,25.60
2018-02-19T10:00:10.540Z,24.77
2018-02-19T10:02:37.984Z,25.50
2018-02-19T10:05:05.450Z,26.27
2018-02-19T10:07:32.910Z,25.30
2018-02-19T10:10:00.373Z,23.20
2018-02-19T10:12:27.825Z,26.70
2018-02-19T10:14:56.195Z,22.87
2018-02-19T10:17:23.666Z,26.47
2018-02-19T10:19:51.142Z,29.77
2018-02-19T10:22:18.613Z,24.53
2018-02-19T10:24:46.079Z,26.90
2018-02-19T10:27:14.306Z,21.77
2018-02-19T10:29:41.812Z,30.53
2018-02-19T10:32:09.209Z,28.33
2018-02-19T10:34:36.661Z,26.53
2018-02-19T10:37:04.117Z,24.33
2018-02-19T10:39:31.577Z,23.90
2018-02-19T10:41:59.046Z,25.00
2018-02-19T10:44:27.273Z,23.47
2018-02-19T10:46:54.731Z,25.13
2018-02-19T10:49:22.190Z,25.40
2018-02-19T10:51:49.666Z,27.40
2018-02-19T10:54:17.226Z,26.77
2018-02-19T10:56:44.677Z,23.30
2018-02-19T10:59:12.135Z,25.10
2018-02-19T11:01:39.589Z,24.50
2018-02-19T11:04:07.050Z,23.83
2018-02-19T11:06:34.500Z,24.00
2018-02-19T11:09:02.137Z,25.23
2018-02-19T11:11:29.426Z,25.83
2018-02-19T11:13:56.882Z,26.47
2018-02-19T11:16:24.357Z,22.40
2018-02-19T11:18:51.810Z,26.33
2018-02-19T11:21:19.262Z,23.77
2018-02-19T11:23:46.739Z,23.83
2018-02-19T11:26:14.189Z,23.53
2018-02-19T11:28:41.646Z,26.07
2018-02-19T11:31:09.101Z,24.40
2018-02-19T11:33:36.571Z,29.30
2018-02-19T11:36:04.025Z,27.20
2018-02-19T11:38:31.484Z,29.77
2018-02-19T11:40:58.938Z,25.50
2018-02-19T11:43:26.405Z,26.20
2018-02-19T11:45:53.858Z,24.97
2018-02-19T11:48:21.317Z,25.60
2018-02-19T11:50:48.782Z,21.90
2018-02-19T11:53:17.025Z,24.17
2018-02-19T11:55:44.501Z,23.43
2018-02-19T11:58:12.000Z,28.83
2018-02-19T12:00:39.486Z,29.53
2018-02-19T12:03:06.952Z,28.07
2018-02-19T12:05:34.409Z,25.20
2018-02-19T12:08:01.893Z,22.93
2018-02-19T12:10:29.349Z,21.40
2018-02-19T12:12:56.814Z,23.60
2018-02-19T12:15:25.038Z,27.23
2018-02-19T12:17:52.626Z,25.83
2018-02-19T12:20:20.074Z,25.40
2018-02-19T12:22:47.538Z,25.10
2018-02-19T12:25:14.993Z,30.10
2018-02-19T12:27:42.481Z,32.00
2018-02-19T12:30:10.694Z,24.93
2018-02-19T12:32:38.182Z,29.50
2018-02-19T12:35:05.634Z,29.47
2018-02-19T12:37:33.093Z,22.73
2018-02-19T12:40:00.545Z,21.40
2018-02-19T12:42:28.037Z,26.70
2018-02-19T12:44:55.484Z,25.83
2018-02-19T12:47:22.938Z,22.80
2018-02-19T12:49:50.400Z,22.63
2018-02-19T12:52:18.625Z,24.43
2018-02-19T12:54:46.086Z,21.57
2018-02-19T12:57:13.566Z,23.30
2018-02-19T12:59:41.097Z,24.23
2018-02-19T13:02:08.546Z,24.57
2018-02-19T13:04:36.001Z,23.30
2018-02-19T13:07:03.454Z,26.13
2018-02-19T13:09:30.914Z,25.33
2018-02-19T13:11:58.373Z,24.73
2018-02-19T13:14:25.833Z,25.73
2018-02-19T13:16:53.281Z,26.27
2018-02-19T13:19:20.737Z,24.17
2018-02-19T13:21:48.197Z,23.07
2018-02-19T13:24:15.654Z,25.10
2018-02-19T13:26:43.111Z,24.77
2018-02-19T13:29:10.582Z,23.73
2018-02-19T13:31:38.033Z,25.40
2018-02-19T13:34:05.502Z,26.60
2018-02-19T13:36:32.956Z,24.73
2018-02-19T13:39:00.425Z,24.20
2018-02-19T13:41:27.884Z,26.27
2018-02-19T13:43:55.359Z,24.90
2018-02-19T13:46:22.817Z,27.70
2018-02-19T13:48:50.277Z,24.70
2018-02-19T13:51:17.734Z,25.60
2018-02-19T13:53:45.188Z,35.97
2018-02-19T13:56:12.654Z,39.03
2018-02-19T13:58:40.881Z,31.83
2018-02-19T14:01:08.333Z,28.77
2018-02-19T14:03:35.782Z,25.83
2018-02-19T14:06:03.248Z,22.17
2018-02-19T14:08:30.709Z,20.33
2018-02-19T14:10:58.169Z,20.33
2018-02-19T14:13:25.621Z,21.17
2018-02-19T14:15:53.107Z,25.53
2018-02-19T14:18:20.562Z,23.80
2018-02-19T14:20:48.013Z,24.90
2018-02-19T14:23:15.484Z,26.73
2018-02-19T14:25:42.947Z,24.90
2018-02-19T14:28:10.392Z,30.40
2018-02-19T14:30:37.861Z,22.97
2018-02-19T14:33:05.317Z,27.40
2018-02-19T14:35:33.567Z,27.27
2018-02-19T14:38:01.027Z,23.37
2018-02-19T14:40:28.489Z,26.17
2018-02-19T14:42:55.954Z,28.03
2018-02-19T14:45:23.413Z,23.80
2018-02-19T14:47:50.877Z,30.70
2018-02-19T14:50:19.105Z,25.03
2018-02-19T14:52:46.558Z,29.10
2018-02-19T14:55:14.014Z,28.17
2018-02-19T14:57:41.469Z,26.10
2018-02-19T15:00:09.753Z,27.53
2018-02-19T15:02:37.226Z,24.00
2018-02-19T15:05:04.713Z,24.87
2018-02-19T15:07:32.933Z,23.83
2018-02-19T15:10:00.400Z,26.33
2018-02-19T15:12:27.854Z,28.17
2018-02-19T15:14:55.330Z,29.83
2018-02-19T15:17:22.777Z,28.23
2018-02-19T15:19:50.241Z,27.70
2018-02-19T15:22:17.703Z,28.93
2018-02-19T15:24:45.166Z,28.37
2018-02-19T15:27:12.614Z,31.90
2018-02-19T15:29:40.094Z,28.87
2018-02-19T15:32:07.550Z,30.90
2018-02-19T15:34:35.777Z,29.13
2018-02-19T15:37:04.360Z,33.00
2018-02-19T15:39:31.829Z,29.23
2018-02-19T15:41:59.299Z,33.43
2018-02-19T15:44:26.742Z,32.53
2018-02-19T15:46:54.214Z,34.83
2018-02-19T15:49:21.652Z,30.43
2018-02-19T15:51:49.121Z,31.40
2018-02-19T15:54:16.577Z,29.50
2018-02-19T15:56:44.798Z,29.23
2018-02-19T15:59:13.012Z,30.03
2018-02-19T16:01:41.244Z,28.63
2018-02-19T16:04:09.461Z,28.07
2018-02-19T16:06:36.932Z,30.27
2018-02-19T16:09:04.376Z,31.07
2018-02-19T16:11:32.607Z,31.17
2018-02-19T16:14:00.825Z,31.73
2018-02-19T16:16:28.289Z,28.80
2018-02-19T16:18:55.744Z,28.93
2018-02-19T16:21:23.215Z,32.70
2018-02-19T16:23:50.661Z,34.40
2018-02-19T16:26:18.142Z,28.87
2018-02-19T16:28:45.595Z,31.40
2018-02-19T16:31:13.050Z,32.83
2018-02-19T16:33:40.497Z,33.20
2018-02-19T16:36:07.969Z,32.90
2018-02-19T16:38:36.197Z,34.73
2018-02-19T16:41:03.648Z,33.37
2018-02-19T16:43:31.113Z,31.73
2018-02-19T16:45:58.565Z,30.83
2018-02-19T16:48:26.046Z,30.97
2018-02-19T16:50:54.294Z,30.80
2018-02-19T16:53:21.741Z,29.63
2018-02-19T16:55:49.209Z,37.10
2018-02-19T16:58:16.665Z,34.80
2018-02-19T17:00:44.132Z,35.80
2018-02-19T17:03:11.622Z,36.10
2018-02-19T17:05:39.077Z,33.40
2018-02-19T17:08:06.539Z,34.70
2018-02-19T17:10:34.018Z,35.30
2018-02-19T17:13:02.240Z,36.20
2018-02-19T17:15:29.702Z,36.33
2018-02-19T17:17:57.157Z,31.60
2018-02-19T17:20:24.631Z,35.07
2018-02-19T17:22:52.081Z,28.67
2018-02-19T17:25:19.545Z,30.77
2018-02-19T17:27:47.010Z,32.70
2018-02-19T17:30:14.458Z,30.27
2018-02-19T17:32:41.921Z,32.20
2018-02-19T17:35:09.922Z,30.27
2018-02-19T17:37:37.377Z,32.43
2018-02-19T17:40:04.843Z,32.80
2018-02-19T17:42:32.301Z,32.30
2018-02-19T17:44:59.753Z,30.03
2018-02-19T17:47:27.221Z,33.40
2018-02-19T17:49:54.674Z,29.47
2018-02-19T17:52:22.135Z,35.77
2018-02-19T17:54:49.600Z,30.43
2018-02-19T17:57:17.057Z,32.13
2018-02-19T17:59:44.539Z,29.13
2018-02-19T18:02:11.994Z,33.13
2018-02-19T18:04:39.453Z,30.37
2018-02-19T18:07:06.908Z,28.83
2018-02-19T18:09:34.370Z,37.87
2018-02-19T18:12:01.829Z,34.93
2018-02-19T18:14:29.293Z,33.07
2018-02-19T18:16:57.530Z,36.30
2018-02-19T18:19:24.982Z,31.30
2018-02-19T18:21:52.446Z,33.97
2018-02-19T18:24:19.898Z,32.97
2018-02-19T18:26:47.386Z,40.03
2018-02-19T18:29:15.761Z,30.90
2018-02-19T18:31:43.225Z,30.97
2018-02-19T18:34:10.676Z,31.33
2018-02-19T18:36:38.186Z,34.97
2018-02-19T18:39:05.644Z,33.37
2018-02-19T18:41:33.097Z,30.27
2018-02-19T18:44:00.556Z,34.07
2018-02-19T18:46:28.005Z,33.90
2018-02-19T18:48:55.578Z,33.97
2018-02-19T18:51:23.033Z,36.90
2018-02-19T18:53:50.550Z,37.63
2018-02-19T18:56:18.013Z,38.93
2018-02-19T18:58:46.245Z,36.30
2018-02-19T19:01:13.696Z,30.27
2018-02-19T19:03:41.161Z,35.10
2018-02-19T19:06:08.614Z,30.40
2018-02-19T19:08:47.997Z,38.67
2018-02-19T19:11:16.226Z,32.27
2018-02-19T19:13:43.692Z,33.90
2018-02-19T19:16:11.137Z,36.70
2018-02-19T19:18:38.593Z,30.97
2018-02-19T19:21:06.046Z,36.60
2018-02-19T19:23:33.502Z,32.50
2018-02-19T19:26:00.993Z,35.70
2018-02-19T19:28:28.460Z,31.20
2018-02-19T19:30:55.910Z,33.30
2018-02-19T19:33:23.369Z,33.67
2018-02-19T19:35:50.830Z,35.10
2018-02-19T19:38:18.297Z,34.17
2018-02-19T19:40:46.509Z,29.83
2018-02-19T19:43:13.966Z,38.37
2018-02-19T19:45:41.423Z,31.90
2018-02-19T19:48:08.883Z,42.43
2018-02-19T19:50:36.343Z,33.20
2018-02-19T19:53:03.812Z,33.60
2018-02-19T19:55:31.276Z,36.33
2018-02-19T19:57:58.733Z,37.50
2018-02-19T20:00:26.201Z,32.97
2018-02-19T20:02:53.667Z,32.20
2018-02-19T20:05:21.122Z,31.67
2018-02-19T20:07:48.586Z,31.23
2018-02-19T20:10:16.805Z,30.90
2018-02-19T20:12:44.267Z,30.20
2018-02-19T20:15:11.746Z,34.00
2018-02-19T20:17:39.221Z,30.90
2018-02-19T20:20:06.687Z,37.17
2018-02-19T20:22:34.138Z,32.50
2018-02-19T20:25:01.616Z,33.50
2018-02-19T20:27:29.830Z,33.93
2018-02-19T20:29:57.991Z,35.83
2018-02-19T20:32:25.450Z,29.90
2018-02-19T20:34:52.930Z,33.00
2018-02-19T20:37:20.376Z,36.03
2018-02-19T20:39:47.845Z,30.93
2018-02-19T20:42:15.296Z,37.87
2018-02-19T20:44:42.772Z,33.23
2018-02-19T20:47:10.214Z,38.03
2018-02-19T20:49:37.673Z,31.60
2018-02-19T20:52:05.135Z,37.27
2018-02-19T20:54:32.589Z,33.57
2018-02-19T20:57:00.054Z,34.67
2018-02-19T20:59:27.513Z,36.90
2018-02-19T21:01:54.970Z,37.03
2018-02-19T21:04:22.440Z,35.93
2018-02-19T21:06:49.897Z,30.63
2018-02-19T21:09:17.355Z,35.13
2018-02-19T21:11:44.805Z,33.40
2018-02-19T21:14:12.274Z,32.90
2018-02-19T21:16:40.493Z,41.00
2018-02-19T21:19:07.957Z,31.73
2018-02-19T21:21:35.418Z,34.83
2018-02-19T21:24:02.882Z,35.73
2018-02-19T21:26:30.333Z,36.20
2018-02-19T21:28:57.789Z,34.57
2018-02-19T21:31:25.251Z,37.10
2018-02-19T21:33:52.709Z,32.70
2018-02-19T21:36:20.160Z,32.30
2018-02-19T21:38:47.617Z,35.97
2018-02-19T21:41:15.080Z,36.87
2018-02-19T21:43:42.539Z,32.63
2018-02-19T21:46:09.989Z,33.87
2018-02-19T21:48:37.540Z,37.73
2018-02-19T21:51:05.722Z,43.67
2018-02-19T21:53:33.996Z,34.07
2018-02-19T21:56:01.449Z,35.00
2018-02-19T21:58:28.922Z,36.80
2018-02-19T22:00:56.385Z,77.80
2018-02-19T22:03:23.837Z,37.17
2018-02-19T22:05:51.302Z,37.10
2018-02-19T22:08:18.793Z,38.93
2018-02-19T22:10:46.254Z,32.80
2018-02-19T22:13:13.709Z,37.07
2018-02-19T22:15:41.185Z,37.40
2018-02-19T22:18:09.552Z,39.90
2018-02-19T22:20:37.019Z,38.43
2018-02-19T22:23:04.555Z,37.23
2018-02-19T22:25:31.960Z,37.50
2018-02-19T22:27:59.397Z,40.97
2018-02-19T22:30:26.854Z,31.37
2018-02-19T22:32:54.333Z,39.07
2018-02-19T22:35:21.801Z,34.47
2018-02-19T22:37:49.246Z,33.07
2018-02-19T22:40:16.746Z,34.50
2018-02-19T22:42:44.961Z,37.17
2018-02-19T22:45:12.443Z,34.70
2018-02-19T22:47:39.889Z,38.47
2018-02-19T22:50:07.351Z,37.63
2018-02-19T22:52:34.814Z,41.30
2018-02-19T22:55:02.274Z,40.37
2018-02-19T22:57:29.741Z,36.57
2018-02-19T22:59:57.198Z,43.63
2018-02-19T23:02:24.645Z,40.30
2018-02-19T23:04:52.130Z,43.40
2018-02-19T23:07:20.350Z,37.47
2018-02-19T23:09:47.810Z,42.83
2018-02-19T23:12:15.268Z,40.37
2018-02-19T23:14:42.730Z,38.00
2018-02-19T23:17:10.187Z,38.10
2018-02-19T23:19:37.640Z,41.80
2018-02-19T23:22:05.094Z,40.30
2018-02-19T23:24:32.565Z,36.93
2018-02-19T23:27:00.014Z,39.60
2018-02-19T23:29:27.476Z,40.50
2018-02-19T23:31:54.927Z,42.67
2018-02-19T23:34:22.380Z,44.07
2018-02-19T23:36:49.856Z,40.07
2018-02-19T23:39:17.297Z,40.80
2018-02-19T23:41:44.757Z,40.50
2018-02-19T23:44:12.214Z,38.23
2018-02-19T23:46:39.674Z,36.27
2018-02-19T23:49:07.122Z,39.50
2018-02-19T23:51:34.582Z,44.20
2018-02-19T23:54:02.036Z,37.03
2018-02-19T23:56:29.489Z,44.30
2018-02-19T23:58:56.942Z,44.20
